Time;durP1;ratioP1;P1;durP2;ratioP2;P2;SDS_P1;SDS_P2;PMS_P1;PMS_P2;Temp;Humidity;BMP_temperature;BMP_pressure;BME280_temperature;BME280_humidity;BME280_pressure;Samples;Min_cycle;Max_cycle;Signal;HPM_P1;HPM_P2
2023/12/09 00:00:28;;;;;;;15.90;8.77;;;;;;;7.42;100.00;100524.00;4985822;28;20094;-82
2023/12/09 00:03:04;;;;;;;22.60;9.77;;;;;;;7.21;100.00;100513.72;4978237;28;20075;-83
2023/12/09 00:05:33;;;;;;;14.30;6.28;;;;;;;7.30;100.00;100531.13;4975297;28;20369;-81
2023/12/09 00:08:10;;;;;;;11.70;5.78;;;;;;;7.37;100.00;100541.81;4982672;28;20058;-82
2023/12/09 00:10:40;;;;;;;7.53;4.68;;;;;;;7.26;100.00;100530.56;4984393;28;20078;-83
2023/12/09 00:13:09;;;;;;;9.20;4.78;;;;;;;7.52;100.00;100546.47;4971193;28;20062;-80
2023/12/09 00:15:37;;;;;;;13.80;5.25;;;;;;;7.43;100.00;100541.28;4975448;28;20093;-81
2023/12/09 00:18:04;;;;;;;13.35;5.20;;;;;;;7.49;100.00;100557.16;4986047;28;20046;-81
2023/12/09 00:20:30;;;;;;;10.82;4.95;;;;;;;7.54;100.00;100551.53;4985738;28;20057;-81
2023/12/09 00:22:57;;;;;;;14.35;5.00;;;;;;;7.54;100.00;100556.75;4984702;28;20095;-81
2023/12/09 00:25:24;;;;;;;8.90;4.30;;;;;;;7.48;100.00;100547.72;4986343;28;20114;-81
2023/12/09 00:27:50;;;;;;;9.55;4.25;;;;;;;7.44;100.00;100548.94;4987183;28;20058;-82
2023/12/09 00:30:17;;;;;;;9.75;4.85;;;;;;;7.50;100.00;100548.41;4989195;28;20216;-81
2023/12/09 00:32:45;;;;;;;13.15;4.72;;;;;;;7.47;100.00;100546.06;4984015;28;20081;-83
2023/12/09 00:35:14;;;;;;;9.57;4.20;;;;;;;7.46;100.00;100557.44;4979632;28;20062;-82
2023/12/09 00:37:41;;;;;;;15.38;4.85;;;;;;;7.44;100.00;100548.94;4969668;28;20043;-82
2023/12/09 00:40:08;;;;;;;12.05;4.63;;;;;;;7.50;100.00;100545.78;4975101;28;20051;-83
2023/12/09 00:42:35;;;;;;;11.77;4.60;;;;;;;7.55;100.00;100540.16;4984686;28;20082;-83
2023/12/09 00:45:01;;;;;;;13.40;4.72;;;;;;;7.58;100.00;100545.91;4985425;28;20125;-83
2023/12/09 00:47:28;;;;;;;11.27;4.63;;;;;;;7.47;100.00;100546.06;4985980;28;20051;-83
2023/12/09 00:49:56;;;;;;;9.98;4.13;;;;;;;7.57;100.00;100546.03;4984703;28;20078;-83
2023/12/09 00:52:22;;;;;;;15.20;5.10;;;;;;;7.44;100.00;100541.13;4982844;28;20054;-83
2023/12/09 00:54:49;;;;;;;13.73;4.38;;;;;;;7.34;100.00;100545.50;4967541;28;20078;-82
2023/12/09 00:57:15;;;;;;;9.73;4.07;;;;;;;7.31;100.00;100548.38;4977619;28;20089;-81
2023/12/09 00:59:42;;;;;;;17.00;4.90;;;;;;;7.18;100.00;100553.84;4976374;28;20048;-81
2023/12/09 01:02:09;;;;;;;11.45;4.60;;;;;;;7.17;100.00;100548.78;4985265;28;20046;-83
2023/12/09 01:04:35;;;;;;;10.57;4.50;;;;;;;7.21;100.00;100553.59;4968933;28;20204;-81
2023/12/09 01:07:05;;;;;;;12.00;4.55;;;;;;;7.24;100.00;100544.69;4969214;28;20114;-82
2023/12/09 01:09:32;;;;;;;9.70;4.30;;;;;;;7.16;100.00;100539.34;4985720;28;20050;-82
2023/12/09 01:11:59;;;;;;;11.00;4.85;;;;;;;7.20;100.00;100549.34;4983037;28;20085;-82
2023/12/09 01:14:25;;;;;;;14.07;4.57;;;;;;;7.20;100.00;100549.34;4967312;28;20086;-82
2023/12/09 01:16:52;;;;;;;12.20;4.15;;;;;;;7.24;100.00;100549.88;4971459;28;20078;-82
2023/12/09 01:19:18;;;;;;;8.43;4.20;;;;;;;7.19;100.00;100552.06;4972513;28;20123;-83
2023/12/09 01:21:45;;;;;;;11.52;4.75;;;;;;;7.23;100.00;100553.44;4964475;28;20138;-83
2023/12/09 01:24:13;;;;;;;15.73;6.07;;;;;;;7.23;100.00;100543.03;4963525;28;20126;-83
2023/12/09 01:26:40;;;;;;;16.80;4.80;;;;;;;7.26;100.00;100542.78;4969102;28;20057;-83
2023/12/09 01:29:07;;;;;;;16.70;4.63;;;;;;;7.36;100.00;100551.41;4967364;28;20047;-82
2023/12/09 01:31:33;;;;;;;8.85;4.20;;;;;;;7.35;100.00;100549.75;4982322;28;20129;-82
2023/12/09 01:34:00;;;;;;;15.55;4.78;;;;;;;7.39;100.00;100547.72;4979597;28;20058;-82
2023/12/09 01:36:27;;;;;;;14.90;4.80;;;;;;;7.35;100.00;100547.16;4976882;28;20050;-82
2023/12/09 01:38:53;;;;;;;12.25;5.05;;;;;;;7.36;100.00;100540.16;4984147;28;20577;-82
2023/12/09 01:41:21;;;;;;;9.00;4.30;;;;;;;7.43;100.00;100542.09;4982530;28;20134;-82
2023/12/09 01:43:49;;;;;;;12.20;4.72;;;;;;;7.40;100.00;100544.97;4983639;28;20082;-83
2023/12/09 01:46:18;;;;;;;19.08;5.55;;;;;;;7.41;100.00;100544.00;4982272;28;20047;-85
2023/12/09 01:48:45;;;;;;;12.50;5.00;;;;;;;7.40;100.00;100539.75;4982469;28;20105;-83
2023/12/09 01:51:13;;;;;;;11.88;5.28;;;;;;;7.33;100.00;100528.25;4982622;28;20078;-82
2023/12/09 01:53:41;;;;;;;16.30;5.25;;;;;;;7.25;100.00;100533.31;4983340;28;20520;-83
2023/12/09 01:56:11;;;;;;;13.85;5.82;;;;;;;7.26;100.00;100538.38;4975849;28;20086;-82
2023/12/09 01:58:39;;;;;;;14.63;4.65;;;;;;;7.16;100.00;100547.13;4984791;28;20182;-81
2023/12/09 02:01:07;;;;;;;13.80;5.50;;;;;;;7.07;100.00;100535.78;4965417;28;20083;-82
2023/12/09 02:03:34;;;;;;;17.52;5.45;;;;;;;7.04;100.00;100532.63;4987133;28;20062;-82
2023/12/09 02:06:01;;;;;;;13.30;5.07;;;;;;;6.93;100.00;100525.78;4977743;28;20075;-81
2023/12/09 02:08:28;;;;;;;17.55;4.95;;;;;;;6.90;100.00;100526.03;4997572;28;20059;-81
2023/12/09 02:11:06;;;;;;;14.80;5.10;;;;;;;6.82;100.00;100529.31;4975752;28;20230;-81
2023/12/09 02:13:44;;;;;;;13.50;5.15;;;;;;;6.84;100.00;100531.78;4982602;28;20046;-81
2023/12/09 02:16:15;;;;;;;14.05;5.25;;;;;;;6.73;100.00;100535.31;4982647;28;20122;-82
2023/12/09 02:18:45;;;;;;;15.50;5.50;;;;;;;6.72;100.00;100527.63;4982777;28;20050;-81
2023/12/09 02:21:11;;;;;;;11.48;5.40;;;;;;;6.76;100.00;100526.41;4981965;28;20105;-81
2023/12/09 02:23:39;;;;;;;18.33;5.68;;;;;;;6.87;100.00;100513.31;4982212;28;20583;-81
2023/12/09 02:26:12;;;;;;;13.90;5.50;;;;;;;6.83;100.00;100509.31;4982000;28;20090;-81
2023/12/09 02:28:46;;;;;;;13.25;5.65;;;;;;;6.81;100.00;100506.03;4982664;28;20086;-81
2023/12/09 02:31:20;;;;;;;13.65;5.75;;;;;;;6.74;100.00;100503.16;4981792;28;20078;-81
2023/12/09 02:33:46;;;;;;;14.32;5.30;;;;;;;6.62;100.00;100496.41;4979822;28;20138;-81
2023/12/09 02:36:17;;;;;;;19.38;5.38;;;;;;;6.56;100.00;100502.16;4984415;28;20074;-82
2023/12/09 02:38:47;;;;;;;14.05;5.90;;;;;;;6.55;100.00;100506.56;4984094;28;20085;-81
2023/12/09 02:41:16;;;;;;;16.73;5.53;;;;;;;6.51;100.00;100501.75;4985529;28;20047;-81
2023/12/09 02:43:45;;;;;;;10.35;4.60;;;;;;;6.45;100.00;100497.91;4974758;28;20055;-81
2023/12/09 02:46:12;;;;;;;14.05;5.60;;;;;;;6.39;100.00;100502.81;4965903;28;20422;-82
2023/12/09 02:48:39;;;;;;;15.15;4.88;;;;;;;6.43;100.00;100502.41;4976682;28;20140;-81
2023/12/09 02:51:06;;;;;;;11.93;5.22;;;;;;;6.39;100.00;100508.81;4970479;28;20078;-81
2023/12/09 02:53:33;;;;;;;14.07;5.10;;;;;;;6.30;100.00;100505.22;4981836;28;20109;-80
2023/12/09 02:56:01;;;;;;;17.38;5.40;;;;;;;6.28;100.00;100508.91;4981746;28;20074;-80
2023/12/09 02:58:28;;;;;;;15.02;5.07;;;;;;;6.26;100.00;100509.03;4980828;28;20611;-80
2023/12/09 03:00:54;;;;;;;10.90;4.95;;;;;;;6.26;100.00;100510.81;4967584;28;20438;-80
2023/12/09 03:03:21;;;;;;;11.02;4.93;;;;;;;6.19;100.00;100505.31;4986184;28;20074;-81
2023/12/09 03:05:47;;;;;;;18.60;5.75;;;;;;;6.18;100.00;100508.03;4983912;28;20469;-79
2023/12/09 03:08:14;;;;;;;19.65;5.57;;;;;;;6.19;100.00;100500.13;4978504;28;20051;-79
2023/12/09 03:10:41;;;;;;;11.27;5.03;;;;;;;6.23;100.00;100491.13;4967256;28;20050;-80
2023/12/09 03:13:09;;;;;;;17.98;5.07;;;;;;;6.28;100.00;100481.16;4974580;28;20138;-79
2023/12/09 03:15:35;;;;;;;15.05;5.05;;;;;;;6.22;100.00;100468.69;4982597;28;20054;-80
2023/12/09 03:18:03;;;;;;;14.02;5.32;;;;;;;6.19;100.00;100458.56;4982446;28;20082;-80
2023/12/09 03:20:29;;;;;;;17.63;5.07;;;;;;;6.10;100.00;100456.78;4982680;28;20101;-81
2023/12/09 03:22:56;;;;;;;13.15;5.53;;;;;;;6.13;100.00;100476.47;4983348;28;20075;-80
2023/12/09 03:25:22;;;;;;;14.27;5.18;;;;;;;6.08;100.00;100460.44;4977005;28;20089;-81
2023/12/09 03:27:49;;;;;;;17.75;5.45;;;;;;;5.99;100.00;100460.28;4964018;28;20130;-80
2023/12/09 03:30:17;;;;;;;18.40;5.68;;;;;;;6.05;100.00;100461.53;4961979;28;20147;-80
2023/12/09 03:32:44;;;;;;;15.02;5.65;;;;;;;5.91;100.00;100459.28;4981259;28;20086;-81
2023/12/09 03:35:12;;;;;;;12.88;5.47;;;;;;;5.86;100.00;100451.84;4982283;28;20082;-80
2023/12/09 03:37:38;;;;;;;14.32;6.18;;;;;;;5.89;100.00;100451.63;4968845;28;20055;-80
2023/12/09 03:40:07;;;;;;;16.75;5.78;;;;;;;5.89;100.00;100456.81;4966196;28;20053;-80
2023/12/09 03:42:33;;;;;;;13.95;5.47;;;;;;;5.88;100.00;100457.72;4982819;28;20082;-81
2023/12/09 03:45:00;;;;;;;16.45;6.00;;;;;;;5.87;100.00;100457.88;4980670;28;20129;-81
2023/12/09 03:47:28;;;;;;;13.40;5.32;;;;;;;5.83;100.00;100464.25;4981489;28;20330;-81
2023/12/09 03:49:55;;;;;;;20.10;5.97;;;;;;;5.81;100.00;100460.97;4980664;28;20051;-80
2023/12/09 03:52:21;;;;;;;15.82;6.55;;;;;;;5.78;100.00;100469.84;4980802;28;20572;-81
2023/12/09 03:54:48;;;;;;;12.10;6.25;;;;;;;5.83;100.00;100459.91;4972552;28;20075;-81
2023/12/09 03:57:15;;;;;;;13.23;6.30;;;;;;;5.88;100.00;100464.69;4965547;28;20101;-80
2023/12/09 03:59:42;;;;;;;16.35;5.65;;;;;;;5.89;100.00;100464.59;4973521;28;20098;-81
2023/12/09 04:02:08;;;;;;;12.13;5.72;;;;;;;5.88;100.00;100467.28;4972567;28;20082;-81
2023/12/09 04:04:40;;;;;;;13.27;5.50;;;;;;;5.86;100.00;100466.59;4961522;28;20078;-80
2023/12/09 04:07:07;;;;;;;19.75;5.75;;;;;;;5.88;100.00;100459.50;4982628;28;20133;-82
2023/12/09 04:09:34;;;;;;;16.17;5.82;;;;;;;5.86;100.00;100461.41;4984381;28;20047;-82
2023/12/09 04:12:01;;;;;;;16.98;6.22;;;;;;;5.91;100.00;100460.09;4977803;28;20160;-83
2023/12/09 04:14:28;;;;;;;14.55;6.20;;;;;;;5.81;100.00;100448.81;4984939;28;20302;-83
2023/12/09 04:16:55;;;;;;;16.42;6.75;;;;;;;5.79;100.00;100461.09;4991525;28;20062;-82
2023/12/09 04:19:22;;;;;;;15.27;7.63;;;;;;;5.79;100.00;100440.31;4991796;28;20078;-84
2023/12/09 04:21:52;;;;;;;12.13;6.13;;;;;;;5.84;100.00;100460.72;4987324;28;20051;-83
2023/12/09 04:24:19;;;;;;;15.70;6.80;;;;;;;5.73;100.00;100455.59;4969694;28;20059;-81
2023/12/09 04:26:45;;;;;;;18.80;6.75;;;;;;;5.72;100.00;100457.38;4962041;28;20074;-82
2023/12/09 04:29:12;;;;;;;18.52;6.97;;;;;;;5.68;100.00;100449.00;4968751;28;20375;-83
2023/12/09 04:31:39;;;;;;;15.25;6.60;;;;;;;5.67;100.00;100457.75;4968993;28;20090;-82
2023/12/09 04:36:41;;;;;;;15.80;6.28;;;;;;;5.57;100.00;100437.91;4963721;29;20043;-81
2023/12/09 04:39:10;;;;;;;14.38;6.35;;;;;;;5.41;100.00;100425.38;4965339;28;20051;-83
2023/12/09 04:41:36;;;;;;;14.38;6.72;;;;;;;5.38;100.00;100436.03;4965266;28;20058;-83
2023/12/09 04:44:03;;;;;;;15.15;7.13;;;;;;;5.39;100.00;100429.88;4964209;28;20059;-83
2023/12/09 04:46:31;;;;;;;18.35;7.05;;;;;;;5.15;100.00;100430.16;4965018;29;20422;-83
2023/12/09 04:48:57;;;;;;;14.77;7.30;;;;;;;5.09;100.00;100440.19;4964566;29;20059;-83
2023/12/09 04:51:24;;;;;;;19.48;8.30;;;;;;;5.10;100.00;100436.66;4965873;28;20077;-83
2023/12/09 04:53:50;;;;;;;20.50;7.60;;;;;;;5.11;100.00;100422.75;4960729;29;20106;-82
2023/12/09 04:56:18;;;;;;;17.15;8.05;;;;;;;5.20;100.00;100432.38;4963283;29;20055;-82
2023/12/09 04:58:46;;;;;;;20.23;8.65;;;;;;;5.10;100.00;100427.13;4963402;29;20082;-82
2023/12/09 05:01:12;;;;;;;16.48;8.07;;;;;;;5.02;100.00;100426.09;4966498;28;20110;-83
2023/12/09 05:03:39;;;;;;;18.85;8.15;;;;;;;4.96;100.00;100422.22;4966032;29;20075;-83
2023/12/09 05:06:08;;;;;;;20.63;8.90;;;;;;;4.92;100.00;100424.25;4966374;29;20148;-83
2023/12/09 05:08:35;;;;;;;19.73;8.65;;;;;;;4.85;100.00;100415.31;4963489;28;20084;-81
2023/12/09 05:11:02;;;;;;;22.98;9.82;;;;;;;4.79;100.00;100418.41;4961766;28;20083;-83
2023/12/09 05:13:30;;;;;;;19.52;9.23;;;;;;;4.82;100.00;100415.56;4964807;29;20120;-83
2023/12/09 05:15:58;;;;;;;21.75;9.23;;;;;;;4.90;100.00;100407.97;4957562;28;20047;-84
2023/12/09 05:18:24;;;;;;;22.08;9.48;;;;;;;4.89;100.00;100403.75;4962566;28;20494;-83
2023/12/09 05:20:51;;;;;;;22.10;9.43;;;;;;;4.81;100.00;100402.72;4961289;28;20143;-84
2023/12/09 05:23:18;;;;;;;22.65;10.48;;;;;;;4.82;100.00;100405.19;4960914;29;20055;-83
2023/12/09 05:25:45;;;;;;;22.50;8.93;;;;;;;4.77;100.00;100398.72;4962346;29;20047;-83
2023/12/09 05:28:11;;;;;;;18.63;9.20;;;;;;;4.86;100.00;100397.97;4964647;29;20081;-84
2023/12/09 05:30:42;;;;;;;18.83;9.70;;;;;;;4.83;100.00;100387.88;4966679;29;20118;-84
2023/12/09 05:33:09;;;;;;;19.65;9.57;;;;;;;4.85;100.00;100381.59;4967863;28;20077;-83
2023/12/09 05:35:36;;;;;;;16.60;9.85;;;;;;;4.81;100.00;100377.63;4965011;29;20051;-83
2023/12/09 05:38:03;;;;;;;22.05;9.55;;;;;;;4.78;100.00;100388.22;4964060;29;20066;-83
2023/12/09 05:40:29;;;;;;;17.95;9.02;;;;;;;4.75;100.00;100392.84;4964499;28;20055;-83
2023/12/09 05:42:59;;;;;;;20.88;9.52;;;;;;;4.72;100.00;100380.97;4972189;28;20051;-84
2023/12/09 05:45:26;;;;;;;17.90;9.23;;;;;;;4.71;100.00;100389.72;4969255;28;20082;-83
2023/12/09 05:47:54;;;;;;;20.92;9.15;;;;;;;4.69;100.00;100385.59;4965429;29;20094;-83
2023/12/09 05:50:21;;;;;;;20.30;9.13;;;;;;;4.64;100.00;100381.59;4967669;28;20062;-84
2023/12/09 05:52:47;;;;;;;15.52;9.13;;;;;;;4.65;100.00;100390.19;4964885;28;20075;-83
2023/12/09 05:55:17;;;;;;;25.23;9.43;;;;;;;4.71;100.00;100391.47;4965843;29;20082;-83
2023/12/09 05:57:46;;;;;;;18.67;8.95;;;;;;;4.70;100.00;100390.66;4966945;29;20058;-83
2023/12/09 06:00:14;;;;;;;18.70;9.35;;;;;;;4.63;100.00;100392.91;4967873;28;20071;-83
2023/12/09 06:02:41;;;;;;;16.05;8.70;;;;;;;4.55;100.00;100378.94;4974587;28;20558;-84
2023/12/09 06:05:10;;;;;;;14.98;8.10;;;;;;;4.60;100.00;100377.59;4957070;29;20051;-84
2023/12/09 06:07:37;;;;;;;18.05;8.82;;;;;;;4.57;100.00;100382.22;4964967;29;20482;-84
2023/12/09 06:10:05;;;;;;;19.80;8.75;;;;;;;4.58;100.00;100373.50;4972267;28;20094;-84
2023/12/09 06:12:31;;;;;;;15.88;8.45;;;;;;;4.61;100.00;100383.63;4965611;29;20349;-83
2023/12/09 06:14:57;;;;;;;14.75;7.80;;;;;;;4.60;100.00;100381.97;4964152;28;20499;-83
2023/12/09 06:17:24;;;;;;;18.23;8.48;;;;;;;4.58;100.00;100384.69;4965731;28;20058;-83
2023/12/09 06:19:50;;;;;;;17.95;8.43;;;;;;;4.55;100.00;100384.09;4969469;29;20062;-83
2023/12/09 06:22:19;;;;;;;18.85;8.30;;;;;;;4.61;100.00;100389.63;4976514;28;20576;-84
2023/12/09 06:24:45;;;;;;;17.92;9.68;;;;;;;4.54;100.00;100382.47;4975960;28;20051;-83
2023/12/09 06:27:12;;;;;;;16.73;8.45;;;;;;;4.51;100.00;100383.53;4974944;28;20058;-82
2023/12/09 06:29:39;;;;;;;18.83;8.55;;;;;;;4.51;100.00;100367.97;4981920;28;20034;-82
2023/12/09 06:32:06;;;;;;;19.00;8.40;;;;;;;4.57;100.00;100371.84;4970379;28;20043;-83
2023/12/09 06:34:34;;;;;;;15.93;7.97;;;;;;;4.61;100.00;100374.06;4964869;28;20119;-83
2023/12/09 06:37:01;;;;;;;16.08;7.90;;;;;;;4.65;100.00;100370.28;4963162;29;20106;-82
2023/12/09 06:39:29;;;;;;;14.23;8.13;;;;;;;4.67;100.00;100370.16;4963732;28;20458;-82
2023/12/09 06:41:58;;;;;;;11.70;7.28;;;;;;;4.62;100.00;100361.94;4965189;28;20062;-82
2023/12/09 06:44:24;;;;;;;19.50;7.47;;;;;;;4.67;100.00;100357.22;4966285;28;20047;-82
2023/12/09 06:46:51;;;;;;;16.63;7.47;;;;;;;4.63;100.00;100350.63;4973117;28;20472;-84
2023/12/09 06:49:18;;;;;;;16.95;7.60;;;;;;;4.71;100.00;100345.66;4964830;28;20051;-82
2023/12/09 06:51:45;;;;;;;12.85;7.10;;;;;;;4.60;100.00;100336.16;4956223;29;20055;-80
2023/12/09 06:54:12;;;;;;;15.30;7.10;;;;;;;4.61;100.00;100331.78;4962804;28;20138;-83
2023/12/09 06:56:40;;;;;;;12.93;7.28;;;;;;;4.78;100.00;100346.75;4965232;28;20069;-83
2023/12/09 06:59:07;;;;;;;13.30;7.15;;;;;;;4.71;100.00;100332.69;4967097;28;20047;-84
2023/12/09 07:01:34;;;;;;;15.38;7.55;;;;;;;4.76;100.00;100320.13;4969165;28;20055;-83
2023/12/09 07:04:01;;;;;;;15.98;7.43;;;;;;;4.93;100.00;100326.53;4959543;28;20414;-83
2023/12/09 07:06:30;;;;;;;13.13;6.60;;;;;;;4.87;100.00;100307.13;4958643;28;20060;-83
2023/12/09 07:08:57;;;;;;;16.25;6.68;;;;;;;4.86;100.00;100305.47;4962658;28;20544;-84
2023/12/09 07:11:25;;;;;;;12.10;7.18;;;;;;;5.03;100.00;100324.00;4965813;29;20051;-83
2023/12/09 07:13:53;;;;;;;17.30;10.52;;;;;;;5.06;100.00;100310.78;4971255;28;20031;-84
2023/12/09 07:16:19;;;;;;;19.45;9.18;;;;;;;5.04;100.00;100313.50;4969022;28;20039;-83
2023/12/09 07:18:47;;;;;;;16.77;8.63;;;;;;;5.02;100.00;100302.44;4978250;28;20036;-84
2023/12/09 07:21:14;;;;;;;15.98;7.35;;;;;;;5.01;100.00;100308.56;4978231;28;20106;-84
2023/12/09 07:23:41;;;;;;;16.95;7.30;;;;;;;5.03;100.00;100303.25;4976399;28;20175;-84
2023/12/09 07:26:08;;;;;;;14.77;7.43;;;;;;;4.99;100.00;100298.31;4967068;28;20078;-84
2023/12/09 07:28:35;;;;;;;12.15;7.40;;;;;;;4.93;100.00;100296.25;4966870;28;20078;-82
2023/12/09 07:31:03;;;;;;;17.63;7.50;;;;;;;4.82;100.00;100287.72;4966686;29;20102;-83
2023/12/09 07:33:30;;;;;;;18.63;7.18;;;;;;;4.66;100.00;100288.19;4968057;29;20541;-84
2023/12/09 07:35:58;;;;;;;16.48;7.43;;;;;;;4.74;100.00;100285.75;4972924;28;20137;-83
2023/12/09 07:38:25;;;;;;;22.98;8.05;;;;;;;4.66;100.00;100268.25;4969615;29;20051;-83
2023/12/09 07:40:52;;;;;;;18.73;7.32;;;;;;;4.76;100.00;100278.66;4970288;28;20119;-85
2023/12/09 07:43:19;;;;;;;17.70;7.75;;;;;;;4.65;100.00;100260.63;4968720;28;20047;-83
2023/12/09 07:45:46;;;;;;;12.45;7.03;;;;;;;4.77;100.00;100258.75;4986981;28;20059;-83
2023/12/09 07:48:14;;;;;;;17.45;8.15;;;;;;;4.81;100.00;100263.56;4969165;29;20049;-83
2023/12/09 07:50:41;;;;;;;18.30;7.55;;;;;;;4.97;100.00;100269.13;4970239;29;20082;-84
2023/12/09 07:53:09;;;;;;;16.33;6.90;;;;;;;4.85;100.00;100245.97;4969749;28;20051;-84
2023/12/09 07:55:35;;;;;;;11.10;7.50;;;;;;;4.97;100.00;100244.94;4967839;28;20062;-83
2023/12/09 07:58:02;;;;;;;18.08;7.88;;;;;;;4.83;100.00;100225.38;4969058;29;20055;-83
2023/12/09 08:00:31;;;;;;;18.08;7.57;;;;;;;4.91;100.00;100235.91;4970602;28;20052;-84
2023/12/09 08:03:04;;;;;;;20.95;9.80;;;;;;;5.04;100.00;100234.88;4970257;29;20051;-83
2023/12/09 08:05:32;;;;;;;14.02;7.60;;;;;;;5.17;100.00;100222.53;4972298;28;20051;-83
2023/12/09 08:07:59;;;;;;;22.08;7.70;;;;;;;5.06;100.00;100202.69;4979146;28;20111;-83
2023/12/09 08:10:26;;;;;;;17.58;8.20;;;;;;;5.28;100.00;100214.63;4972606;29;20079;-83
2023/12/09 08:12:53;;;;;;;15.30;6.68;;;;;;;5.46;100.00;100210.44;4971985;29;20046;-84
2023/12/09 08:15:20;;;;;;;17.67;7.30;;;;;;;5.46;100.00;100209.63;4978061;28;20054;-84
2023/12/09 08:17:47;;;;;;;15.50;7.10;;;;;;;5.52;100.00;100209.91;4977690;29;20049;-83
2023/12/09 08:20:14;;;;;;;13.68;6.75;;;;;;;5.63;100.00;100208.97;4977658;28;20054;-84
2023/12/09 08:22:42;;;;;;;13.25;6.35;;;;;;;5.58;100.00;100177.41;4976585;29;20063;-85
2023/12/09 08:25:10;;;;;;;18.85;6.45;;;;;;;5.75;100.00;100171.53;4978518;28;20043;-82
2023/12/09 08:27:38;;;;;;;13.35;6.60;;;;;;;5.63;100.00;100152.69;4976782;28;20047;-83
2023/12/09 08:30:10;;;;;;;20.75;7.47;;;;;;;5.88;100.00;100166.06;4975163;28;20086;-84
2023/12/09 08:32:37;;;;;;;13.60;6.53;;;;;;;5.95;100.00;100149.84;4978852;28;20070;-84
2023/12/09 08:35:04;;;;;;;22.17;7.07;;;;;;;6.02;100.00;100162.28;4976255;28;20035;-84
2023/12/09 08:37:30;;;;;;;20.33;7.70;;;;;;;6.12;100.00;100182.09;4974104;28;20051;-84
2023/12/09 08:40:09;;;;;;;10.32;6.60;;;;;;;6.18;100.00;100185.91;4972135;28;20051;-81
2023/12/09 08:42:37;;;;;;;14.07;6.97;;;;;;;6.18;100.00;100181.53;4974273;28;20114;-84
2023/12/09 08:45:05;;;;;;;17.75;7.00;;;;;;;6.21;100.00;100189.03;4972743;28;20066;-84
2023/12/09 08:47:32;;;;;;;19.83;7.28;;;;;;;6.22;100.00;100180.28;4972871;29;20097;-84
2023/12/09 08:49:59;;;;;;;14.57;7.35;;;;;;;6.27;100.00;100169.47;4974460;29;20062;-85
2023/12/09 08:52:26;;;;;;;19.67;6.60;;;;;;;6.24;100.00;100161.97;4973318;29;20098;-85
2023/12/09 08:54:54;;;;;;;14.20;7.05;;;;;;;6.41;100.00;100182.03;4975625;28;20054;-84
2023/12/09 08:57:22;;;;;;;15.20;7.15;;;;;;;6.40;100.00;100164.00;4976322;29;20102;-85
2023/12/09 08:59:49;;;;;;;14.57;6.78;;;;;;;6.13;100.00;100134.38;4972824;29;20051;-85
2023/12/09 09:02:24;;;;;;;18.33;6.65;;;;;;;6.22;100.00;100148.28;4974421;29;20039;-84
2023/12/09 09:04:50;;;;;;;15.07;6.22;;;;;;;6.33;100.00;100154.16;4986686;28;20055;-87
2023/12/09 09:07:21;;;;;;;14.68;6.45;;;;;;;6.32;100.00;100160.31;4988907;28;20066;-82
2023/12/09 09:09:48;;;;;;;12.70;6.25;;;;;;;6.30;100.00;100149.22;4976604;28;20074;-85
2023/12/09 09:12:15;;;;;;;14.45;6.47;;;;;;;6.29;100.00;100145.00;4978031;28;20120;-84
2023/12/09 09:14:43;;;;;;;16.60;6.53;;;;;;;6.44;100.00;100160.97;4984435;28;20118;-83
2023/12/09 09:17:10;;;;;;;20.45;6.80;;;;;;;6.35;100.00;100145.41;4973256;28;20067;-84
2023/12/09 09:19:37;;;;;;;16.67;6.35;;;;;;;6.36;100.00;100129.66;4972279;29;20078;-83
2023/12/09 09:22:07;;;;;;;11.63;5.78;;;;;;;6.55;100.00;100141.78;4972205;29;20063;-84
2023/12/09 09:24:37;;;;;;;15.82;6.30;;;;;;;6.59;100.00;100128.38;4969311;28;20518;-84
2023/12/09 09:27:04;;;;;;;15.52;6.40;;;;;;;6.60;100.00;100116.19;4967180;28;20054;-84
2023/12/09 09:29:31;;;;;;;14.55;6.20;;;;;;;6.88;100.00;100138.63;4966239;28;20086;-84
2023/12/09 09:31:59;;;;;;;13.77;6.43;;;;;;;6.83;100.00;100114.84;4965646;29;20071;-83
2023/12/09 09:34:26;;;;;;;16.13;6.90;;;;;;;6.81;100.00;100110.75;4966826;28;20047;-82
2023/12/09 09:36:53;;;;;;;17.25;6.82;;;;;;;6.83;100.00;100112.25;4964759;29;20402;-84
2023/12/09 09:39:29;;;;;;;18.60;6.25;;;;;;;6.96;100.00;100099.72;4965647;28;20092;-84
2023/12/09 09:42:12;;;;;;;21.00;7.32;;;;;;;6.96;100.00;100099.72;4965482;28;20118;-85
2023/12/09 09:44:45;;;;;;;13.48;6.40;;;;;;;7.02;100.00;100076.69;4966720;28;20062;-82
2023/12/09 09:47:13;;;;;;;;;;;;;;;7.15;100.00;100087.53;4969288;29;20047;-84
2023/12/09 09:49:45;;;;;;;15.98;6.60;;;;;;;7.14;100.00;100085.91;4968518;29;19929;-85
2023/12/09 09:52:18;;;;;;;21.65;7.70;;;;;;;7.19;100.00;100062.88;4959635;28;20057;-83
2023/12/09 09:54:46;;;;;;;13.93;7.53;;;;;;;7.13;100.00;100045.25;4965224;28;20059;-83
2023/12/09 09:57:14;;;;;;;13.82;6.28;;;;;;;7.22;100.00;100036.56;4968020;29;20054;-83
2023/12/09 09:59:41;;;;;;;17.15;6.63;;;;;;;7.36;100.00;100037.81;4968488;29;20083;-83
2023/12/09 10:02:09;;;;;;;17.42;6.63;;;;;;;7.31;100.00;100017.44;4973652;28;20055;-83
2023/12/09 10:04:37;;;;;;;17.92;6.95;;;;;;;7.38;100.00;100031.50;4977432;28;20047;-83
2023/12/09 10:07:05;;;;;;;16.13;6.97;;;;;;;7.42;100.00;100021.59;4968618;28;20043;-83
2023/12/09 10:09:33;;;;;;;15.57;6.15;;;;;;;7.35;100.00;100000.56;4965525;29;20087;-81
2023/12/09 10:12:00;;;;;;;16.40;6.35;;;;;;;7.36;100.00;99983.97;4962182;29;20063;-80
2023/12/09 10:14:26;;;;;;;10.88;5.82;;;;;;;7.35;100.00;99990.16;4964923;28;20047;-83
2023/12/09 10:16:54;;;;;;;16.27;6.78;;;;;;;7.42;100.00;99977.34;4968213;28;20091;-83
2023/12/09 10:19:21;;;;;;;17.50;5.88;;;;;;;7.66;100.00;99983.53;4968877;29;20055;-83
2023/12/09 10:21:49;;;;;;;17.33;6.35;;;;;;;7.87;100.00;99970.16;4969221;29;20055;-83
2023/12/09 10:24:18;;;;;;;14.32;6.00;;;;;;;7.94;100.00;99958.16;4965931;28;20051;-83
2023/12/09 10:26:45;;;;;;;11.80;6.05;;;;;;;7.89;100.00;99926.53;4969317;28;20051;-81
2023/12/09 10:29:12;;;;;;;17.08;6.70;;;;;;;7.97;100.00;99942.22;4966908;29;20492;-84
2023/12/09 10:31:39;;;;;;;15.27;5.50;;;;;;;8.29;100.00;99944.13;4965789;28;20055;-83
2023/12/09 10:34:06;;;;;;;16.50;5.82;;;;;;;8.26;100.00;99941.81;4963716;28;20051;-84
2023/12/09 10:36:33;;;;;;;19.02;5.93;;;;;;;8.37;100.00;99945.97;4979458;23;20137;-82
2023/12/09 10:39:01;;;;;;;13.85;5.80;;;;;;;8.42;100.00;99942.88;4951268;28;20087;-79
2023/12/09 10:41:28;;;;;;;16.67;5.53;;;;;;;8.39;100.00;99927.56;4958581;28;20094;-77
2023/12/09 10:43:55;;;;;;;20.27;6.18;;;;;;;8.57;100.00;99926.44;4951867;28;20107;-79
2023/12/09 10:46:23;;;;;;;13.18;5.32;;;;;;;8.52;100.00;99902.63;4955736;28;20119;-80
2023/12/09 10:48:51;;;;;;;15.48;6.45;;;;;;;8.62;100.00;99886.84;4960850;28;20580;-79
2023/12/09 10:51:20;;;;;;;14.95;5.70;;;;;;;8.79;100.00;99883.28;4956114;28;21256;-78
2023/12/09 10:53:47;;;;;;;18.23;4.80;;;;;;;8.73;100.00;99886.53;4954987;28;20079;-81
2023/12/09 10:56:19;;;;;;;10.98;5.05;;;;;;;8.82;100.00;99885.56;4956512;28;20485;-79
2023/12/09 10:58:47;;;;;;;17.48;5.90;;;;;;;9.07;100.00;99886.38;4955055;29;20054;-81
2023/12/09 11:01:17;;;;;;;15.55;5.25;;;;;;;9.01;100.00;99878.38;4959010;29;20091;-80
2023/12/09 11:03:43;;;;;;;18.25;5.60;;;;;;;8.94;100.00;99878.25;4958063;29;20130;-82
2023/12/09 11:06:12;;;;;;;15.30;4.25;;;;;;;9.03;100.00;99863.38;4957103;29;20126;-80
2023/12/09 11:08:40;;;;;;;23.20;6.07;;;;;;;8.98;100.00;99856.84;4960354;28;20114;-80
2023/12/09 11:11:20;;;;;;;13.75;4.35;;;;;;;9.07;100.00;99846.41;4956025;29;20044;-82
2023/12/09 11:13:49;;;;;;;20.45;7.88;;;;;;;8.94;100.00;99819.03;4964105;29;20055;-80
2023/12/09 11:19:53;;;;;;;12.02;4.22;;;;;;;8.83;100.00;99806.34;4941178;29;20055;-81
2023/12/09 11:29:48;;;;;;;14.93;4.40;;;;;;;8.82;100.00;99755.13;4823703;29;20082;-81
2023/12/09 11:38:52;;;;;;;16.45;4.40;;;;;;;8.95;100.00;99721.53;4939346;29;20123;-82
2023/12/09 11:41:22;;;;;;;13.80;5.72;;;;;;;8.97;100.00;99703.91;4936111;29;20051;-81